sensor_id;sensor_type;location;lat;lon;timestamp;temperature;humidity
5621;DHT22;2832;50.864;12.186;2023-07-08T00:00:24;24.80;88.50
5621;DHT22;2832;50.864;12.186;2023-07-08T00:02:52;24.80;88.50
5621;DHT22;2832;50.864;12.186;2023-07-08T00:05:29;24.70;88.50
5621;DHT22;2832;50.864;12.186;2023-07-08T00:07:57;24.70;88.50
5621;DHT22;2832;50.864;12.186;2023-07-08T00:10:27;24.70;88.60
5621;DHT22;2832;50.864;12.186;2023-07-08T00:12:58;24.70;88.60
5621;DHT22;2832;50.864;12.186;2023-07-08T00:15:29;24.60;88.60
5621;DHT22;2832;50.864;12.186;2023-07-08T00:18:10;24.60;88.70
5621;DHT22;2832;50.864;12.186;2023-07-08T00:20:40;24.60;88.70
5621;DHT22;2832;50.864;12.186;2023-07-08T00:23:09;24.60;88.80
5621;DHT22;2832;50.864;12.186;2023-07-08T00:25:39;24.60;88.70
5621;DHT22;2832;50.864;12.186;2023-07-08T00:28:14;24.60;88.70
5621;DHT22;2832;50.864;12.186;2023-07-08T00:30:43;24.50;88.60
5621;DHT22;2832;50.864;12.186;2023-07-08T00:33:11;24.50;88.60
5621;DHT22;2832;50.864;12.186;2023-07-08T00:35:40;24.50;88.70
5621;DHT22;2832;50.864;12.186;2023-07-08T00:38:13;24.50;88.60
5621;DHT22;2832;50.864;12.186;2023-07-08T00:40:50;24.50;88.70
5621;DHT22;2832;50.864;12.186;2023-07-08T00:43:34;24.40;88.60
5621;DHT22;2832;50.864;12.186;2023-07-08T00:46:12;24.40;88.70
5621;DHT22;2832;50.864;12.186;2023-07-08T00:48:45;24.40;88.70
5621;DHT22;2832;50.864;12.186;2023-07-08T00:51:13;24.30;88.70
5621;DHT22;2832;50.864;12.186;2023-07-08T00:53:42;24.40;88.70
5621;DHT22;2832;50.864;12.186;2023-07-08T00:56:12;24.30;88.70
5621;DHT22;2832;50.864;12.186;2023-07-08T00:58:48;24.30;88.80
5621;DHT22;2832;50.864;12.186;2023-07-08T01:01:17;24.30;88.80
5621;DHT22;2832;50.864;12.186;2023-07-08T01:03:49;24.30;88.90
5621;DHT22;2832;50.864;12.186;2023-07-08T01:06:20;24.30;88.90
5621;DHT22;2832;50.864;12.186;2023-07-08T01:08:49;24.20;88.90
5621;DHT22;2832;50.864;12.186;2023-07-08T01:11:21;24.20;88.90
5621;DHT22;2832;50.864;12.186;2023-07-08T01:13:52;24.20;89.00
5621;DHT22;2832;50.864;12.186;2023-07-08T01:16:22;24.10;88.80
5621;DHT22;2832;50.864;12.186;2023-07-08T01:18:50;24.10;88.80
5621;DHT22;2832;50.864;12.186;2023-07-08T01:21:32;24.10;88.80
5621;DHT22;2832;50.864;12.186;2023-07-08T01:24:03;24.10;88.80
5621;DHT22;2832;50.864;12.186;2023-07-08T01:26:34;24.10;88.80
5621;DHT22;2832;50.864;12.186;2023-07-08T01:29:03;24.10;88.70
5621;DHT22;2832;50.864;12.186;2023-07-08T01:31:34;24.10;88.90
5621;DHT22;2832;50.864;12.186;2023-07-08T01:34:02;24.00;89.00
5621;DHT22;2832;50.864;12.186;2023-07-08T01:36:39;24.00;89.00
5621;DHT22;2832;50.864;12.186;2023-07-08T01:39:14;24.00;89.00
5621;DHT22;2832;50.864;12.186;2023-07-08T01:41:43;24.00;89.00
5621;DHT22;2832;50.864;12.186;2023-07-08T01:44:27;24.00;89.00
5621;DHT22;2832;50.864;12.186;2023-07-08T01:46:56;24.00;89.10
5621;DHT22;2832;50.864;12.186;2023-07-08T01:49:25;23.90;89.10
5621;DHT22;2832;50.864;12.186;2023-07-08T01:51:54;23.90;89.10
5621;DHT22;2832;50.864;12.186;2023-07-08T01:54:24;23.90;89.20
5621;DHT22;2832;50.864;12.186;2023-07-08T01:56:55;23.90;89.30
5621;DHT22;2832;50.864;12.186;2023-07-08T01:59:22;23.90;89.30
5621;DHT22;2832;50.864;12.186;2023-07-08T02:01:50;23.80;89.30
5621;DHT22;2832;50.864;12.186;2023-07-08T02:04:21;23.80;89.30
5621;DHT22;2832;50.864;12.186;2023-07-08T02:06:53;23.80;89.30
5621;DHT22;2832;50.864;12.186;2023-07-08T02:09:21;23.70;89.20
5621;DHT22;2832;50.864;12.186;2023-07-08T02:11:51;23.70;89.30
5621;DHT22;2832;50.864;12.186;2023-07-08T02:14:18;23.70;89.30
5621;DHT22;2832;50.864;12.186;2023-07-08T02:16:52;23.70;89.40
5621;DHT22;2832;50.864;12.186;2023-07-08T02:19:20;23.70;89.30
5621;DHT22;2832;50.864;12.186;2023-07-08T02:21:48;23.70;89.20
5621;DHT22;2832;50.864;12.186;2023-07-08T02:24:18;23.60;89.10
5621;DHT22;2832;50.864;12.186;2023-07-08T02:26:46;23.60;89.10
5621;DHT22;2832;50.864;12.186;2023-07-08T02:29:15;23.60;89.20
5621;DHT22;2832;50.864;12.186;2023-07-08T02:31:43;23.60;89.20
5621;DHT22;2832;50.864;12.186;2023-07-08T02:34:11;23.60;89.20
5621;DHT22;2832;50.864;12.186;2023-07-08T02:36:39;23.60;89.30
5621;DHT22;2832;50.864;12.186;2023-07-08T02:39:07;23.50;89.20
5621;DHT22;2832;50.864;12.186;2023-07-08T02:41:35;23.50;89.20
5621;DHT22;2832;50.864;12.186;2023-07-08T02:44:02;23.50;89.30
5621;DHT22;2832;50.864;12.186;2023-07-08T02:46:32;23.40;89.30
5621;DHT22;2832;50.864;12.186;2023-07-08T02:49:00;23.40;89.30
5621;DHT22;2832;50.864;12.186;2023-07-08T02:51:28;23.40;89.40
5621;DHT22;2832;50.864;12.186;2023-07-08T02:53:55;23.40;89.40
5621;DHT22;2832;50.864;12.186;2023-07-08T02:56:23;23.40;89.40
5621;DHT22;2832;50.864;12.186;2023-07-08T02:58:52;23.40;89.40
5621;DHT22;2832;50.864;12.186;2023-07-08T03:01:20;23.40;89.50
5621;DHT22;2832;50.864;12.186;2023-07-08T03:03:51;23.30;89.40
5621;DHT22;2832;50.864;12.186;2023-07-08T03:06:20;23.30;89.40
5621;DHT22;2832;50.864;12.186;2023-07-08T03:08:48;23.30;89.40
5621;DHT22;2832;50.864;12.186;2023-07-08T03:11:16;23.30;89.40
5621;DHT22;2832;50.864;12.186;2023-07-08T03:13:45;23.30;89.40
5621;DHT22;2832;50.864;12.186;2023-07-08T03:16:13;23.30;89.30
5621;DHT22;2832;50.864;12.186;2023-07-08T03:18:41;23.30;89.40
5621;DHT22;2832;50.864;12.186;2023-07-08T03:21:17;23.20;89.30
5621;DHT22;2832;50.864;12.186;2023-07-08T03:23:48;23.20;89.20
5621;DHT22;2832;50.864;12.186;2023-07-08T03:26:18;23.20;89.20
5621;DHT22;2832;50.864;12.186;2023-07-08T03:28:52;23.20;89.20
5621;DHT22;2832;50.864;12.186;2023-07-08T03:31:20;23.10;89.20
5621;DHT22;2832;50.864;12.186;2023-07-08T03:33:48;23.10;89.10
5621;DHT22;2832;50.864;12.186;2023-07-08T03:36:18;23.10;89.10
5621;DHT22;2832;50.864;12.186;2023-07-08T03:38:57;23.10;89.10
5621;DHT22;2832;50.864;12.186;2023-07-08T03:41:27;23.10;89.10
5621;DHT22;2832;50.864;12.186;2023-07-08T03:44:09;23.10;89.20
5621;DHT22;2832;50.864;12.186;2023-07-08T03:46:47;23.00;89.20
5621;DHT22;2832;50.864;12.186;2023-07-08T03:49:16;23.10;89.30
5621;DHT22;2832;50.864;12.186;2023-07-08T03:51:52;23.00;89.20
5621;DHT22;2832;50.864;12.186;2023-07-08T03:54:22;23.00;89.30
5621;DHT22;2832;50.864;12.186;2023-07-08T03:56:51;23.00;89.20
5621;DHT22;2832;50.864;12.186;2023-07-08T03:59:22;23.00;89.30
5621;DHT22;2832;50.864;12.186;2023-07-08T04:01:50;23.00;89.50
5621;DHT22;2832;50.864;12.186;2023-07-08T04:04:18;23.00;89.60
5621;DHT22;2832;50.864;12.186;2023-07-08T04:06:46;22.90;90.10
5621;DHT22;2832;50.864;12.186;2023-07-08T04:09:16;22.90;89.70
5621;DHT22;2832;50.864;12.186;2023-07-08T04:11:44;22.90;89.70
5621;DHT22;2832;50.864;12.186;2023-07-08T04:14:13;22.90;89.80
5621;DHT22;2832;50.864;12.186;2023-07-08T04:16:48;22.90;89.80
5621;DHT22;2832;50.864;12.186;2023-07-08T04:19:18;22.90;89.80
5621;DHT22;2832;50.864;12.186;2023-07-08T04:21:46;22.90;89.80
5621;DHT22;2832;50.864;12.186;2023-07-08T04:24:16;22.90;89.90
5621;DHT22;2832;50.864;12.186;2023-07-08T04:26:46;22.90;90.00
5621;DHT22;2832;50.864;12.186;2023-07-08T04:29:22;22.90;90.00
5621;DHT22;2832;50.864;12.186;2023-07-08T04:31:51;22.90;90.00
5621;DHT22;2832;50.864;12.186;2023-07-08T04:34:18;22.90;90.10
5621;DHT22;2832;50.864;12.186;2023-07-08T04:36:47;22.80;90.10
5621;DHT22;2832;50.864;12.186;2023-07-08T04:39:18;22.80;90.10
5621;DHT22;2832;50.864;12.186;2023-07-08T04:41:46;22.90;90.20
5621;DHT22;2832;50.864;12.186;2023-07-08T04:44:14;22.90;90.20
5621;DHT22;2832;50.864;12.186;2023-07-08T04:46:47;22.90;90.20
5621;DHT22;2832;50.864;12.186;2023-07-08T04:49:17;22.80;90.20
5621;DHT22;2832;50.864;12.186;2023-07-08T04:51:46;22.80;90.30
5621;DHT22;2832;50.864;12.186;2023-07-08T04:54:18;22.80;90.30
5621;DHT22;2832;50.864;12.186;2023-07-08T04:56:49;22.80;90.30
5621;DHT22;2832;50.864;12.186;2023-07-08T04:59:22;22.80;90.40
5621;DHT22;2832;50.864;12.186;2023-07-08T05:01:50;22.80;90.40
5621;DHT22;2832;50.864;12.186;2023-07-08T05:04:20;22.80;90.40
5621;DHT22;2832;50.864;12.186;2023-07-08T05:06:48;22.80;90.50
5621;DHT22;2832;50.864;12.186;2023-07-08T05:09:19;22.80;90.50
5621;DHT22;2832;50.864;12.186;2023-07-08T05:11:48;22.80;90.50
5621;DHT22;2832;50.864;12.186;2023-07-08T05:14:16;22.80;90.50
5621;DHT22;2832;50.864;12.186;2023-07-08T05:16:44;22.80;90.60
5621;DHT22;2832;50.864;12.186;2023-07-08T05:19:15;22.80;90.60
5621;DHT22;2832;50.864;12.186;2023-07-08T05:21:45;22.80;90.60
5621;DHT22;2832;50.864;12.186;2023-07-08T05:24:14;22.80;90.60
5621;DHT22;2832;50.864;12.186;2023-07-08T05:26:44;22.80;90.80
5621;DHT22;2832;50.864;12.186;2023-07-08T05:29:12;22.80;90.80
5621;DHT22;2832;50.864;12.186;2023-07-08T05:31:41;22.80;90.90
5621;DHT22;2832;50.864;12.186;2023-07-08T05:34:09;22.80;90.90
5621;DHT22;2832;50.864;12.186;2023-07-08T05:36:39;22.90;91.00
5621;DHT22;2832;50.864;12.186;2023-07-08T05:39:07;22.80;91.00
5621;DHT22;2832;50.864;12.186;2023-07-08T05:41:35;22.90;91.00
5621;DHT22;2832;50.864;12.186;2023-07-08T05:44:04;22.90;91.20
5621;DHT22;2832;50.864;12.186;2023-07-08T05:46:32;22.90;91.20
5621;DHT22;2832;50.864;12.186;2023-07-08T05:49:01;22.80;91.30
5621;DHT22;2832;50.864;12.186;2023-07-08T05:51:29;22.90;91.30
5621;DHT22;2832;50.864;12.186;2023-07-08T05:54:01;22.90;91.30
5621;DHT22;2832;50.864;12.186;2023-07-08T05:56:33;22.90;91.30
5621;DHT22;2832;50.864;12.186;2023-07-08T05:59:01;22.90;91.20
5621;DHT22;2832;50.864;12.186;2023-07-08T06:01:31;23.00;91.20
5621;DHT22;2832;50.864;12.186;2023-07-08T06:03:59;23.00;91.20
5621;DHT22;2832;50.864;12.186;2023-07-08T06:06:28;23.00;91.30
5621;DHT22;2832;50.864;12.186;2023-07-08T06:08:56;23.00;91.10
5621;DHT22;2832;50.864;12.186;2023-07-08T06:11:23;23.00;91.20
5621;DHT22;2832;50.864;12.186;2023-07-08T06:14:07;23.00;91.20
5621;DHT22;2832;50.864;12.186;2023-07-08T06:16:50;23.00;91.20
5621;DHT22;2832;50.864;12.186;2023-07-08T06:19:21;23.10;91.30
5621;DHT22;2832;50.864;12.186;2023-07-08T06:21:51;23.10;91.30
5621;DHT22;2832;50.864;12.186;2023-07-08T06:24:23;23.10;91.30
5621;DHT22;2832;50.864;12.186;2023-07-08T06:26:51;23.10;91.30
5621;DHT22;2832;50.864;12.186;2023-07-08T06:29:18;23.10;91.30
5621;DHT22;2832;50.864;12.186;2023-07-08T06:31:48;23.20;91.40
5621;DHT22;2832;50.864;12.186;2023-07-08T06:34:16;23.10;91.30
5621;DHT22;2832;50.864;12.186;2023-07-08T06:36:43;23.20;91.40
5621;DHT22;2832;50.864;12.186;2023-07-08T06:39:11;23.20;91.40
5621;DHT22;2832;50.864;12.186;2023-07-08T06:41:40;23.30;91.40
5621;DHT22;2832;50.864;12.186;2023-07-08T06:44:10;23.30;91.40
5621;DHT22;2832;50.864;12.186;2023-07-08T06:46:39;23.30;91.40
5621;DHT22;2832;50.864;12.186;2023-07-08T06:49:08;23.30;91.50
5621;DHT22;2832;50.864;12.186;2023-07-08T06:51:39;23.30;91.50
5621;DHT22;2832;50.864;12.186;2023-07-08T06:54:09;23.30;91.40
5621;DHT22;2832;50.864;12.186;2023-07-08T06:56:42;23.30;91.30
5621;DHT22;2832;50.864;12.186;2023-07-08T06:59:15;23.30;91.30
5621;DHT22;2832;50.864;12.186;2023-07-08T07:01:43;23.40;91.30
5621;DHT22;2832;50.864;12.186;2023-07-08T07:04:14;23.40;91.20
5621;DHT22;2832;50.864;12.186;2023-07-08T07:06:44;23.40;91.10
5621;DHT22;2832;50.864;12.186;2023-07-08T07:09:13;23.50;91.00
5621;DHT22;2832;50.864;12.186;2023-07-08T07:11:41;23.50;91.00
5621;DHT22;2832;50.864;12.186;2023-07-08T07:14:08;23.50;90.90
5621;DHT22;2832;50.864;12.186;2023-07-08T07:16:37;23.50;90.90
5621;DHT22;2832;50.864;12.186;2023-07-08T07:19:05;23.50;90.90
5621;DHT22;2832;50.864;12.186;2023-07-08T07:21:34;23.60;90.80
5621;DHT22;2832;50.864;12.186;2023-07-08T07:24:02;23.60;90.80
5621;DHT22;2832;50.864;12.186;2023-07-08T07:26:29;23.70;90.70
5621;DHT22;2832;50.864;12.186;2023-07-08T07:28:58;23.70;90.50
5621;DHT22;2832;50.864;12.186;2023-07-08T07:31:26;23.70;90.70
5621;DHT22;2832;50.864;12.186;2023-07-08T07:33:53;23.70;90.70
5621;DHT22;2832;50.864;12.186;2023-07-08T07:36:21;23.80;90.60
5621;DHT22;2832;50.864;12.186;2023-07-08T07:38:50;24.00;90.60
5621;DHT22;2832;50.864;12.186;2023-07-08T07:41:20;24.20;90.20
5621;DHT22;2832;50.864;12.186;2023-07-08T07:43:51;24.20;90.00
5621;DHT22;2832;50.864;12.186;2023-07-08T07:46:19;24.30;89.60
5621;DHT22;2832;50.864;12.186;2023-07-08T07:48:47;24.40;89.60
5621;DHT22;2832;50.864;12.186;2023-07-08T07:51:16;24.60;89.40
5621;DHT22;2832;50.864;12.186;2023-07-08T07:53:43;24.50;88.30
5621;DHT22;2832;50.864;12.186;2023-07-08T07:56:13;24.50;87.80
5621;DHT22;2832;50.864;12.186;2023-07-08T07:58:43;24.60;88.10
5621;DHT22;2832;50.864;12.186;2023-07-08T08:01:11;24.60;87.50
5621;DHT22;2832;50.864;12.186;2023-07-08T08:03:40;24.60;87.60
5621;DHT22;2832;50.864;12.186;2023-07-08T08:06:08;24.60;88.60
5621;DHT22;2832;50.864;12.186;2023-07-08T08:08:37;24.60;88.70
5621;DHT22;2832;50.864;12.186;2023-07-08T08:11:04;24.70;89.70
5621;DHT22;2832;50.864;12.186;2023-07-08T08:13:34;24.60;88.90
5621;DHT22;2832;50.864;12.186;2023-07-08T08:16:03;24.60;89.10
5621;DHT22;2832;50.864;12.186;2023-07-08T08:18:31;24.60;88.60
5621;DHT22;2832;50.864;12.186;2023-07-08T08:20:59;24.60;88.70
5621;DHT22;2832;50.864;12.186;2023-07-08T08:23:26;24.60;88.50
5621;DHT22;2832;50.864;12.186;2023-07-08T08:25:55;24.60;89.10
5621;DHT22;2832;50.864;12.186;2023-07-08T08:28:23;24.80;88.90
5621;DHT22;2832;50.864;12.186;2023-07-08T08:30:53;24.70;88.30
5621;DHT22;2832;50.864;12.186;2023-07-08T08:33:22;24.70;88.00
5621;DHT22;2832;50.864;12.186;2023-07-08T08:35:52;24.90;88.90
5621;DHT22;2832;50.864;12.186;2023-07-08T08:38:22;24.90;89.00
5621;DHT22;2832;50.864;12.186;2023-07-08T08:40:49;25.10;89.10
5621;DHT22;2832;50.864;12.186;2023-07-08T08:43:20;25.30;88.50
5621;DHT22;2832;50.864;12.186;2023-07-08T08:45:56;25.30;87.70
5621;DHT22;2832;50.864;12.186;2023-07-08T08:48:29;25.20;87.90
5621;DHT22;2832;50.864;12.186;2023-07-08T08:51:04;25.10;88.30
5621;DHT22;2832;50.864;12.186;2023-07-08T08:53:39;25.00;87.90
5621;DHT22;2832;50.864;12.186;2023-07-08T08:56:14;25.10;87.80
5621;DHT22;2832;50.864;12.186;2023-07-08T08:58:47;25.10;88.00
5621;DHT22;2832;50.864;12.186;2023-07-08T09:01:19;25.30;88.10
5621;DHT22;2832;50.864;12.186;2023-07-08T09:03:50;25.30;89.00
5621;DHT22;2832;50.864;12.186;2023-07-08T09:06:20;25.30;89.20
5621;DHT22;2832;50.864;12.186;2023-07-08T09:08:51;25.30;88.80
5621;DHT22;2832;50.864;12.186;2023-07-08T09:11:37;25.40;88.20
5621;DHT22;2832;50.864;12.186;2023-07-08T09:14:15;25.40;87.90
5621;DHT22;2832;50.864;12.186;2023-07-08T09:16:51;25.40;88.10
5621;DHT22;2832;50.864;12.186;2023-07-08T09:19:24;25.50;87.50
5621;DHT22;2832;50.864;12.186;2023-07-08T09:21:59;25.50;87.10
5621;DHT22;2832;50.864;12.186;2023-07-08T09:24:40;25.50;86.30
5621;DHT22;2832;50.864;12.186;2023-07-08T09:27:10;25.60;85.60
5621;DHT22;2832;50.864;12.186;2023-07-08T09:29:46;25.70;85.10
5621;DHT22;2832;50.864;12.186;2023-07-08T09:32:22;25.70;84.20
5621;DHT22;2832;50.864;12.186;2023-07-08T09:34:53;26.20;84.40
5621;DHT22;2832;50.864;12.186;2023-07-08T09:37:25;26.30;82.10
5621;DHT22;2832;50.864;12.186;2023-07-08T09:39:58;26.20;83.80
5621;DHT22;2832;50.864;12.186;2023-07-08T09:42:30;26.10;84.40
5621;DHT22;2832;50.864;12.186;2023-07-08T09:45:11;26.30;82.30
5621;DHT22;2832;50.864;12.186;2023-07-08T09:47:52;26.20;83.10
5621;DHT22;2832;50.864;12.186;2023-07-08T09:50:24;26.10;82.70
5621;DHT22;2832;50.864;12.186;2023-07-08T09:52:54;26.20;83.00
5621;DHT22;2832;50.864;12.186;2023-07-08T09:55:24;26.20;81.80
5621;DHT22;2832;50.864;12.186;2023-07-08T09:57:55;26.30;82.40
5621;DHT22;2832;50.864;12.186;2023-07-08T10:00:30;26.50;81.40
5621;DHT22;2832;50.864;12.186;2023-07-08T10:03:05;26.70;80.30
5621;DHT22;2832;50.864;12.186;2023-07-08T10:05:40;26.50;80.20
5621;DHT22;2832;50.864;12.186;2023-07-08T10:08:14;26.40;80.70
5621;DHT22;2832;50.864;12.186;2023-07-08T10:10:48;26.40;78.50
5621;DHT22;2832;50.864;12.186;2023-07-08T10:13:22;26.40;77.60
5621;DHT22;2832;50.864;12.186;2023-07-08T10:15:55;26.40;77.00
5621;DHT22;2832;50.864;12.186;2023-07-08T10:18:29;26.50;75.60
5621;DHT22;2832;50.864;12.186;2023-07-08T10:21:07;26.60;75.80
5621;DHT22;2832;50.864;12.186;2023-07-08T10:23:43;27.10;70.60
5621;DHT22;2832;50.864;12.186;2023-07-08T10:26:21;27.10;71.30
5621;DHT22;2832;50.864;12.186;2023-07-08T10:29:01;27.00;70.90
5621;DHT22;2832;50.864;12.186;2023-07-08T10:31:38;27.10;71.80
5621;DHT22;2832;50.864;12.186;2023-07-08T10:34:30;27.30;70.70
5621;DHT22;2832;50.864;12.186;2023-07-08T10:37:05;27.20;68.00
5621;DHT22;2832;50.864;12.186;2023-07-08T10:39:56;27.50;68.20
5621;DHT22;2832;50.864;12.186;2023-07-08T10:42:38;27.30;69.50
5621;DHT22;2832;50.864;12.186;2023-07-08T10:45:13;27.20;68.80
5621;DHT22;2832;50.864;12.186;2023-07-08T10:47:52;27.30;68.80
5621;DHT22;2832;50.864;12.186;2023-07-08T10:50:48;27.50;69.10
5621;DHT22;2832;50.864;12.186;2023-07-08T10:53:35;27.40;68.80
5621;DHT22;2832;50.864;12.186;2023-07-08T10:56:15;27.60;68.10
5621;DHT22;2832;50.864;12.186;2023-07-08T11:02:02;27.60;65.10
5621;DHT22;2832;50.864;12.186;2023-07-08T11:04:48;27.50;65.20
5621;DHT22;2832;50.864;12.186;2023-07-08T11:07:30;27.50;66.70
5621;DHT22;2832;50.864;12.186;2023-07-08T11:10:05;27.40;66.70
5621;DHT22;2832;50.864;12.186;2023-07-08T11:12:38;27.40;67.00
5621;DHT22;2832;50.864;12.186;2023-07-08T11:15:15;27.60;64.70
5621;DHT22;2832;50.864;12.186;2023-07-08T11:17:49;27.70;64.20
5621;DHT22;2832;50.864;12.186;2023-07-08T11:20:24;27.60;64.60
5621;DHT22;2832;50.864;12.186;2023-07-08T11:23:08;27.70;65.20
5621;DHT22;2832;50.864;12.186;2023-07-08T11:25:37;27.60;64.90
5621;DHT22;2832;50.864;12.186;2023-07-08T11:28:12;27.80;63.80
5621;DHT22;2832;50.864;12.186;2023-07-08T11:30:52;27.90;64.60
5621;DHT22;2832;50.864;12.186;2023-07-08T11:33:25;27.90;64.20
5621;DHT22;2832;50.864;12.186;2023-07-08T11:35:55;28.00;63.20
5621;DHT22;2832;50.864;12.186;2023-07-08T11:38:27;28.20;63.80
5621;DHT22;2832;50.864;12.186;2023-07-08T11:40:57;28.10;64.10
5621;DHT22;2832;50.864;12.186;2023-07-08T11:43:33;28.00;64.90
5621;DHT22;2832;50.864;12.186;2023-07-08T11:46:06;27.90;65.50
5621;DHT22;2832;50.864;12.186;2023-07-08T11:48:42;27.70;66.00
5621;DHT22;2832;50.864;12.186;2023-07-08T11:51:18;27.90;65.90
5621;DHT22;2832;50.864;12.186;2023-07-08T11:53:49;27.90;64.70
5621;DHT22;2832;50.864;12.186;2023-07-08T11:56:25;27.80;64.80
5621;DHT22;2832;50.864;12.186;2023-07-08T11:59:14;27.80;65.00
5621;DHT22;2832;50.864;12.186;2023-07-08T12:01:52;27.80;64.40
5621;DHT22;2832;50.864;12.186;2023-07-08T12:04:28;27.70;64.10
5621;DHT22;2832;50.864;12.186;2023-07-08T12:07:11;27.90;63.30
5621;DHT22;2832;50.864;12.186;2023-07-08T12:09:48;27.80;63.70
5621;DHT22;2832;50.864;12.186;2023-07-08T12:12:22;27.80;63.80
5621;DHT22;2832;50.864;12.186;2023-07-08T12:14:58;28.10;63.70
5621;DHT22;2832;50.864;12.186;2023-07-08T12:17:27;28.00;64.00
5621;DHT22;2832;50.864;12.186;2023-07-08T12:19:58;27.90;64.00
5621;DHT22;2832;50.864;12.186;2023-07-08T12:22:29;27.80;64.60
5621;DHT22;2832;50.864;12.186;2023-07-08T12:25:08;27.80;65.50
5621;DHT22;2832;50.864;12.186;2023-07-08T12:27:49;27.80;65.70
5621;DHT22;2832;50.864;12.186;2023-07-08T12:30:20;28.00;65.80
5621;DHT22;2832;50.864;12.186;2023-07-08T12:32:49;28.50;63.30
5621;DHT22;2832;50.864;12.186;2023-07-08T12:35:22;28.70;63.10
5621;DHT22;2832;50.864;12.186;2023-07-08T12:37:54;28.60;64.80
5621;DHT22;2832;50.864;12.186;2023-07-08T12:40:35;28.40;64.10
5621;DHT22;2832;50.864;12.186;2023-07-08T12:43:10;28.30;64.20
5621;DHT22;2832;50.864;12.186;2023-07-08T12:45:40;28.20;64.90
5621;DHT22;2832;50.864;12.186;2023-07-08T12:48:11;28.10;65.00
5621;DHT22;2832;50.864;12.186;2023-07-08T12:50:39;28.40;64.40
5621;DHT22;2832;50.864;12.186;2023-07-08T12:53:06;28.40;64.00
5621;DHT22;2832;50.864;12.186;2023-07-08T12:55:38;28.30;64.50
5621;DHT22;2832;50.864;12.186;2023-07-08T12:58:09;28.30;63.70
5621;DHT22;2832;50.864;12.186;2023-07-08T13:00:40;28.50;63.90
5621;DHT22;2832;50.864;12.186;2023-07-08T13:03:14;28.70;63.00
5621;DHT22;2832;50.864;12.186;2023-07-08T13:05:43;28.70;62.80
5621;DHT22;2832;50.864;12.186;2023-07-08T13:08:14;28.50;63.00
5621;DHT22;2832;50.864;12.186;2023-07-08T13:10:46;28.40;62.80
5621;DHT22;2832;50.864;12.186;2023-07-08T13:13:18;28.40;63.10
5621;DHT22;2832;50.864;12.186;2023-07-08T13:15:48;28.30;63.10
5621;DHT22;2832;50.864;12.186;2023-07-08T13:18:17;28.30;63.30
5621;DHT22;2832;50.864;12.186;2023-07-08T13:20:50;28.50;64.10
5621;DHT22;2832;50.864;12.186;2023-07-08T13:23:19;28.70;64.20
5621;DHT22;2832;50.864;12.186;2023-07-08T13:25:50;29.10;66.30
5621;DHT22;2832;50.864;12.186;2023-07-08T13:28:22;29.10;67.10
5621;DHT22;2832;50.864;12.186;2023-07-08T13:30:51;28.90;67.60
5621;DHT22;2832;50.864;12.186;2023-07-08T13:33:21;28.80;67.70
5621;DHT22;2832;50.864;12.186;2023-07-08T13:35:51;28.70;67.60
5621;DHT22;2832;50.864;12.186;2023-07-08T13:38:23;29.20;68.00
5621;DHT22;2832;50.864;12.186;2023-07-08T13:40:55;29.20;65.80
5621;DHT22;2832;50.864;12.186;2023-07-08T13:43:24;29.00;66.40
5621;DHT22;2832;50.864;12.186;2023-07-08T13:45:53;28.90;67.30
5621;DHT22;2832;50.864;12.186;2023-07-08T13:48:29;29.00;67.20
5621;DHT22;2832;50.864;12.186;2023-07-08T13:51:08;29.00;67.40
5621;DHT22;2832;50.864;12.186;2023-07-08T13:53:47;28.80;67.20
5621;DHT22;2832;50.864;12.186;2023-07-08T13:56:22;28.80;68.40
5621;DHT22;2832;50.864;12.186;2023-07-08T13:58:51;29.00;68.30
5621;DHT22;2832;50.864;12.186;2023-07-08T14:01:22;28.90;67.10
5621;DHT22;2832;50.864;12.186;2023-07-08T14:03:52;28.80;68.60
5621;DHT22;2832;50.864;12.186;2023-07-08T14:06:22;28.80;67.50
5621;DHT22;2832;50.864;12.186;2023-07-08T14:08:57;28.80;66.70
5621;DHT22;2832;50.864;12.186;2023-07-08T14:11:27;28.70;67.90
5621;DHT22;2832;50.864;12.186;2023-07-08T14:13:56;28.60;66.80
5621;DHT22;2832;50.864;12.186;2023-07-08T14:16:25;28.50;67.30
5621;DHT22;2832;50.864;12.186;2023-07-08T14:18:56;28.60;67.80
5621;DHT22;2832;50.864;12.186;2023-07-08T14:21:27;28.70;68.20
5621;DHT22;2832;50.864;12.186;2023-07-08T14:24:02;28.80;67.70
5621;DHT22;2832;50.864;12.186;2023-07-08T14:26:44;29.10;67.00
5621;DHT22;2832;50.864;12.186;2023-07-08T14:29:12;29.20;66.50
5621;DHT22;2832;50.864;12.186;2023-07-08T14:31:41;29.00;67.50
5621;DHT22;2832;50.864;12.186;2023-07-08T14:34:11;29.10;65.80
5621;DHT22;2832;50.864;12.186;2023-07-08T14:36:41;29.00;66.80
5621;DHT22;2832;50.864;12.186;2023-07-08T14:39:14;29.00;66.70
5621;DHT22;2832;50.864;12.186;2023-07-08T14:41:46;28.90;66.50
5621;DHT22;2832;50.864;12.186;2023-07-08T14:44:21;28.80;67.10
5621;DHT22;2832;50.864;12.186;2023-07-08T14:46:49;28.80;66.00
5621;DHT22;2832;50.864;12.186;2023-07-08T14:49:20;28.90;67.20
5621;DHT22;2832;50.864;12.186;2023-07-08T14:51:50;29.20;66.00
5621;DHT22;2832;50.864;12.186;2023-07-08T14:54:19;29.10;66.10
5621;DHT22;2832;50.864;12.186;2023-07-08T14:56:54;29.10;65.60
5621;DHT22;2832;50.864;12.186;2023-07-08T14:59:32;29.10;66.00
5621;DHT22;2832;50.864;12.186;2023-07-08T15:02:11;29.10;64.50
5621;DHT22;2832;50.864;12.186;2023-07-08T15:04:44;29.20;64.00
5621;DHT22;2832;50.864;12.186;2023-07-08T15:07:13;29.30;62.60
5621;DHT22;2832;50.864;12.186;2023-07-08T15:09:44;29.20;63.50
5621;DHT22;2832;50.864;12.186;2023-07-08T15:12:14;29.30;63.60
5621;DHT22;2832;50.864;12.186;2023-07-08T15:14:42;29.20;64.40
5621;DHT22;2832;50.864;12.186;2023-07-08T15:17:15;29.20;65.00
5621;DHT22;2832;50.864;12.186;2023-07-08T15:19:43;29.40;65.00
5621;DHT22;2832;50.864;12.186;2023-07-08T15:22:11;29.50;65.30
5621;DHT22;2832;50.864;12.186;2023-07-08T15:24:40;29.60;65.40
5621;DHT22;2832;50.864;12.186;2023-07-08T15:27:09;29.50;65.20
5621;DHT22;2832;50.864;12.186;2023-07-08T15:29:40;29.30;65.70
5621;DHT22;2832;50.864;12.186;2023-07-08T15:32:11;29.20;65.00
5621;DHT22;2832;50.864;12.186;2023-07-08T15:34:41;29.30;66.80
5621;DHT22;2832;50.864;12.186;2023-07-08T15:37:10;29.50;66.40
5621;DHT22;2832;50.864;12.186;2023-07-08T15:39:38;29.60;66.60
5621;DHT22;2832;50.864;12.186;2023-07-08T15:42:10;29.50;66.00
5621;DHT22;2832;50.864;12.186;2023-07-08T15:44:40;29.60;65.50
5621;DHT22;2832;50.864;12.186;2023-07-08T15:47:12;29.60;66.00
5621;DHT22;2832;50.864;12.186;2023-07-08T15:49:41;29.60;65.60
5621;DHT22;2832;50.864;12.186;2023-07-08T15:52:09;29.60;65.70
5621;DHT22;2832;50.864;12.186;2023-07-08T15:54:38;29.60;65.30
5621;DHT22;2832;50.864;12.186;2023-07-08T15:57:09;29.60;63.60
5621;DHT22;2832;50.864;12.186;2023-07-08T15:59:40;29.60;64.00
5621;DHT22;2832;50.864;12.186;2023-07-08T16:02:25;29.70;63.80
5621;DHT22;2832;50.864;12.186;2023-07-08T16:04:55;29.60;64.10
5621;DHT22;2832;50.864;12.186;2023-07-08T16:07:23;29.70;65.20
5621;DHT22;2832;50.864;12.186;2023-07-08T16:09:52;29.60;65.30
5621;DHT22;2832;50.864;12.186;2023-07-08T16:12:24;29.60;66.20
5621;DHT22;2832;50.864;12.186;2023-07-08T16:14:53;29.60;65.20